Time;durP1;ratioP1;P1;durP2;ratioP2;P2;SDS_P1;SDS_P2;PMS_P1;PMS_P2;Temp;Humidity;BMP_temperature;BMP_pressure;BME280_temperature;BME280_humidity;BME280_pressure;Samples;Min_cycle;Max_cycle;Signal;HPM_P1;HPM_P2
2021/09/02 00:02:21;;;;;;;;;;;;;;;20.13;60.14;102201.75;4971246;28;99172;-73
2021/09/02 00:04:48;;;;;;;;;;;;;;;20.22;59.73;102198.53;4953952;28;96907;-74
2021/09/02 00:07:14;;;;;;;;;;;;;;;20.00;60.44;102208.69;4973947;28;97699;-73
2021/09/02 00:09:40;;;;;;;;;;;;;;;20.23;59.94;102199.41;4973909;28;98920;-73
2021/09/02 00:12:08;;;;;;;;;;;;;;;20.37;59.14;102199.59;4972701;28;98906;-73
2021/09/02 00:14:35;;;;;;;;;;;;;;;20.43;59.22;102206.44;4974724;28;97241;-73
2021/09/02 00:17:01;;;;;;;;;;;;;;;20.38;59.44;102206.69;4974391;28;96929;-72
2021/09/02 00:19:27;;;;;;;;;;;;;;;20.35;59.44;102206.84;4971662;28;98926;-75
2021/09/02 00:21:54;;;;;;;;;;;;;;;20.58;58.75;102208.31;4976788;28;98747;-75
2021/09/02 00:24:20;;;;;;;;;;;;;;;20.44;59.05;102211.75;4975371;28;96871;-74
2021/09/02 00:26:46;;;;;;;;;;;;;;;20.61;58.80;102216.22;4978472;28;98679;-74
2021/09/02 00:29:14;;;;;;;;;;;;;;;20.68;58.24;102215.78;4981768;28;98161;-74
2021/09/02 00:31:40;;;;;;;;;;;;;;;20.39;59.37;102218.31;4975205;28;98826;-75
2021/09/02 00:34:06;;;;;;;;;;;;;;;20.61;58.69;102219.75;4974805;28;97073;-75
2021/09/02 00:36:32;;;;;;;;;;;;;;;20.46;58.99;102222.41;4974538;28;96990;-74
2021/09/02 00:38:59;;;;;;;;;;;;;;;20.55;58.99;102225.44;4972915;28;99003;-74
2021/09/02 00:41:25;;;;;;;;;;;;;;;20.65;58.75;102225.84;4972812;28;99059;-73
2021/09/02 00:43:51;;;;;;;;;;;;;;;20.68;58.33;102228.34;4970946;28;97371;-74
2021/09/02 00:46:19;;;;;;;;;;;;;;;20.62;58.73;102236.72;4973649;28;96832;-74
2021/09/02 00:48:46;;;;;;;;;;;;;;;20.71;58.19;102233.56;4970489;28;99248;-74
2021/09/02 00:51:13;;;;;;;;;;;;;;;20.59;58.73;102240.47;4973256;28;98921;-72
2021/09/02 00:53:39;;;;;;;;;;;;;;;20.65;58.46;102234.75;4974372;28;97894;-73
2021/09/02 00:56:06;;;;;;;;;;;;;;;20.54;58.85;102233.59;4973021;28;97984;-73
2021/09/02 00:58:32;;;;;;;;;;;;;;;20.67;58.29;102240.94;4968049;28;99108;-74
2021/09/02 01:00:59;;;;;;;;;;;;;;;20.59;58.36;102243.16;4967486;28;99526;-73
2021/09/02 01:03:27;;;;;;;;;;;;;;;20.66;58.01;102236.50;4974831;28;98358;-74
2021/09/02 01:05:53;;;;;;;;;;;;;;;20.27;59.15;102238.59;4974750;28;97300;-73
2021/09/02 01:08:19;;;;;;;;;;;;;;;20.05;59.82;102241.50;4974787;28;99342;-74
2021/09/02 01:10:49;;;;;;;;;;;;;;;20.18;59.42;102236.38;4972053;28;99158;-73
2021/09/02 01:13:15;;;;;;;;;;;;;;;20.04;59.74;102229.03;4970594;28;97108;-74
2021/09/02 01:15:41;;;;;;;;;;;;;;;19.95;60.09;102232.22;4973069;28;97053;-75
2021/09/02 01:18:07;;;;;;;;;;;;;;;20.03;59.72;102235.34;4974108;28;99002;-74
2021/09/02 01:20:35;;;;;;;;;;;;;;;20.12;59.36;102237.56;4973569;28;98944;-75
2021/09/02 01:23:03;;;;;;;;;;;;;;;19.83;60.74;102230.13;4972742;28;97128;-74
2021/09/02 01:25:32;;;;;;;;;;;;;;;19.69;60.71;102232.66;4973284;28;97080;-74
2021/09/02 01:28:00;;;;;;;;;;;;;;;19.73;60.59;102223.50;4973113;28;99012;-74
2021/09/02 01:30:26;;;;;;;;;;;;;;;19.75;60.75;102227.00;4972467;28;98782;-74
2021/09/02 01:32:54;;;;;;;;;;;;;;;19.82;60.34;102223.06;4963867;28;96831;-74
2021/09/02 01:35:21;;;;;;;;;;;;;;;19.99;59.99;102224.84;4973009;28;96829;-75
2021/09/02 01:37:48;;;;;;;;;;;;;;;19.77;60.38;102233.13;4972483;28;99539;-74
2021/09/02 01:40:19;;;;;;;;;;;;;;;19.99;60.07;102225.72;4973318;28;98856;-74
2021/09/02 01:42:47;;;;;;;;;;;;;;;19.63;60.84;102233.81;4969567;28;97024;-74
2021/09/02 01:45:13;;;;;;;;;;;;;;;19.62;61.33;102225.88;4972294;28;98495;-74
2021/09/02 01:47:40;;;;;;;;;;;;;;;19.69;60.85;102233.50;4972923;28;99116;-74
2021/09/02 01:50:08;;;;;;;;;;;;;;;19.69;60.92;102233.50;4973585;28;98993;-74
2021/09/02 01:52:34;;;;;;;;;;;;;;;19.83;60.49;102228.31;4970644;28;98795;-74
2021/09/02 01:55:00;;;;;;;;;;;;;;;19.61;61.18;102233.03;4973371;28;97245;-73
2021/09/02 01:57:27;;;;;;;;;;;;;;;19.69;60.55;102233.50;4970957;28;99596;-74
2021/09/02 01:59:54;;;;;;;;;;;;;;;19.82;59.84;102234.63;4971885;28;99401;-73
2021/09/02 02:02:21;;;;;;;;;;;;;;;20.19;58.91;102228.25;4969027;28;99079;-74
2021/09/02 02:04:47;;;;;;;;;;;;;;;19.98;59.61;102226.66;4974429;28;97261;-74
2021/09/02 02:07:13;;;;;;;;;;;;;;;19.81;59.92;102227.56;4971168;28;98999;-73
2021/09/02 02:09:39;;;;;;;;;;;;;;;19.70;60.01;102237.06;4972804;28;98840;-74
2021/09/02 02:12:06;;;;;;;;;;;;;;;19.41;61.04;102228.63;4969685;28;99057;-74
2021/09/02 02:14:32;;;;;;;;;;;;;;;19.43;61.26;102224.03;4973053;28;96882;-75
2021/09/02 02:17:00;;;;;;;;;;;;;;;19.63;60.39;102228.44;4963415;28;98855;-74
2021/09/02 02:19:26;;;;;;;;;;;;;;;19.77;60.09;102217.03;4973020;28;99225;-74
2021/09/02 02:21:52;;;;;;;;;;;;;;;19.82;59.90;102213.16;4971295;28;97367;-74
2021/09/02 02:24:18;;;;;;;;;;;;;;;19.75;59.66;102211.78;4972018;28;97276;-74
2021/09/02 02:26:45;;;;;;;;;;;;;;;19.84;59.36;102213.09;4970335;28;99026;-74
2021/09/02 02:29:11;;;;;;;;;;;;;;;19.76;59.92;102212.59;4970468;28;99029;-74
2021/09/02 02:31:37;;;;;;;;;;;;;;;19.63;60.12;102225.75;4971844;28;97869;-74
2021/09/02 02:34:05;;;;;;;;;;;;;;;19.55;60.54;102219.94;4971405;28;97184;-74
2021/09/02 02:36:31;;;;;;;;;;;;;;;19.45;60.46;102219.47;4971939;28;99251;-73
2021/09/02 02:38:57;;;;;;;;;;;;;;;19.67;59.83;102215.78;4967799;28;98964;-74
2021/09/02 02:41:24;;;;;;;;;;;;;;;19.58;60.06;102218.91;4970244;28;97221;-74
2021/09/02 02:43:50;;;;;;;;;;;;;;;19.45;60.51;102215.94;4970388;28;97164;-74
2021/09/02 02:46:16;;;;;;;;;;;;;;;19.24;61.38;102217.84;4970693;28;99097;-74
2021/09/02 02:48:43;;;;;;;;;;;;;;;19.36;60.58;102206.53;4972358;28;99234;-74
2021/09/02 02:51:10;;;;;;;;;;;;;;;19.45;60.24;102210.56;4971554;28;96877;-74
2021/09/02 02:53:37;;;;;;;;;;;;;;;19.58;59.80;102210.84;4971876;28;98923;-74
2021/09/02 02:56:03;;;;;;;;;;;;;;;19.68;59.45;102209.47;4972725;28;97962;-74
2021/09/02 02:58:29;;;;;;;;;;;;;;;19.57;59.71;102218.03;4975461;28;98831;-74
2021/09/02 03:00:55;;;;;;;;;;;;;;;19.75;59.19;102216.25;4970955;28;97519;-73
2021/09/02 03:03:22;;;;;;;;;;;;;;;19.65;59.64;102210.47;4971592;28;96889;-74
2021/09/02 03:05:48;;;;;;;;;;;;;;;19.73;59.06;102210.97;4971206;28;99185;-74
2021/09/02 03:08:16;;;;;;;;;;;;;;;19.77;58.80;102214.34;4972152;28;99034;-74
2021/09/02 03:10:42;;;;;;;;;;;;;;;19.74;58.85;102219.88;4972060;28;96779;-74
2021/09/02 03:13:08;;;;;;;;;;;;;;;19.64;59.77;102218.59;4971988;28;96972;-74
2021/09/02 03:15:34;;;;;;;;;;;;;;;19.58;59.64;102217.09;4970283;28;99841;-74
2021/09/02 03:18:01;;;;;;;;;;;;;;;19.54;59.63;102220.00;4946322;28;98863;-74
2021/09/02 03:20:27;;;;;;;;;;;;;;;19.40;60.25;102210.81;4969601;28;98422;-73
2021/09/02 03:22:54;;;;;;;;;;;;;;;19.48;59.53;102213.16;4970594;28;96880;-75
2021/09/02 03:25:21;;;;;;;;;;;;;;;19.42;59.60;102214.28;4967648;28;98913;-75
2021/09/02 03:27:47;;;;;;;;;;;;;;;19.39;60.23;102221.59;4969988;28;98766;-75
2021/09/02 03:30:14;;;;;;;;;;;;;;;19.65;59.31;102220.34;4970959;28;96937;-75
2021/09/02 03:32:41;;;;;;;;;;;;;;;19.74;59.07;102227.94;4974288;28;96879;-74
2021/09/02 03:35:08;;;;;;;;;;;;;;;19.80;58.72;102227.63;4971453;28;100477;-74
2021/09/02 03:37:34;;;;;;;;;;;;;;;19.76;58.88;102232.25;4971330;28;98933;-73
2021/09/02 03:40:00;;;;;;;;;;;;;;;19.15;60.66;102230.84;4959457;28;97117;-74
2021/09/02 03:42:28;;;;;;;;;;;;;;;19.44;59.92;102232.94;4970529;28;97490;-74
2021/09/02 03:44:54;;;;;;;;;;;;;;;19.41;60.09;102222.41;4971207;28;98965;-75
2021/09/02 03:47:20;;;;;;;;;;;;;;;19.70;59.18;102229.88;4972140;28;98808;-73
2021/09/02 03:49:47;;;;;;;;;;;;;;;19.70;59.10;102231.69;4969689;28;97094;-74
2021/09/02 03:52:13;;;;;;;;;;;;;;;19.70;58.75;102239.75;4970312;28;96861;-73
2021/09/02 03:54:39;;;;;;;;;;;;;;;19.45;59.80;102235.56;4969520;28;98993;-73
2021/09/02 03:57:06;;;;;;;;;;;;;;;19.58;59.38;102238.53;4971776;28;98847;-74
2021/09/02 03:59:33;;;;;;;;;;;;;;;19.26;60.22;102240.09;4969878;28;96737;-73
2021/09/02 04:02:00;;;;;;;;;;;;;;;19.33;60.11;102243.34;4970965;28;96892;-74
2021/09/02 04:04:26;;;;;;;;;;;;;;;19.59;59.19;102242.09;4970525;28;98894;-74
2021/09/02 04:06:52;;;;;;;;;;;;;;;19.56;59.26;102242.25;4969319;28;99301;-74
2021/09/02 04:09:18;;;;;;;;;;;;;;;19.67;58.94;102245.28;4970579;28;96819;-74
2021/09/02 04:11:45;;;;;;;;;;;;;;;19.80;58.53;102247.25;4969044;28;97011;-74
2021/09/02 04:14:11;;;;;;;;;;;;;;;19.71;58.49;102249.53;4972615;28;99125;-73
2021/09/02 04:16:39;;;;;;;;;;;;;;;19.50;59.11;102241.59;4970846;28;99112;-74
2021/09/02 04:19:05;;;;;;;;;;;;;;;19.60;58.84;102244.72;4971866;28;98800;-72
2021/09/02 04:21:31;;;;;;;;;;;;;;;19.55;58.83;102238.72;4973495;28;96935;-74
2021/09/02 04:23:58;;;;;;;;;;;;;;;19.56;59.11;102247.63;4972635;28;98955;-74
2021/09/02 04:26:24;;;;;;;;;;;;;;;19.60;59.01;102243.84;4969577;28;99173;-73
2021/09/02 04:28:50;;;;;;;;;;;;;;;19.51;59.41;102245.16;4971543;28;97338;-74
2021/09/02 04:31:16;;;;;;;;;;;;;;;19.51;59.18;102247.81;4972466;28;96925;-72
2021/09/02 04:33:44;;;;;;;;;;;;;;;19.30;59.56;102252.38;4971326;28;98999;-73
2021/09/02 04:36:10;;;;;;;;;;;;;;;19.47;59.24;102247.13;4971116;28;98810;-73
2021/09/02 04:38:37;;;;;;;;;;;;;;;19.55;58.83;102251.25;4974263;28;96699;-73
2021/09/02 04:41:03;;;;;;;;;;;;;;;19.62;58.55;102252.69;4973273;28;97802;-74
2021/09/02 04:43:29;;;;;;;;;;;;;;;19.55;58.63;102245.88;4967740;28;98967;-74
2021/09/02 04:45:56;;;;;;;;;;;;;;;19.44;59.19;102249.91;4969473;28;99293;-74
2021/09/02 04:48:22;;;;;;;;;;;;;;;19.31;59.23;102250.56;4970875;28;98735;-74
2021/09/02 04:50:51;;;;;;;;;;;;;;;19.37;59.31;102253.81;4969503;28;98706;-74
2021/09/02 04:53:18;;;;;;;;;;;;;;;19.35;59.42;102249.50;4967052;28;99116;-74
2021/09/02 04:55:45;;;;;;;;;;;;;;;19.09;59.96;102258.78;4973047;28;98970;-74
2021/09/02 04:58:12;;;;;;;;;;;;;;;19.37;59.50;102261.88;4982110;28;97126;-74
2021/09/02 05:00:39;;;;;;;;;;;;;;;19.37;59.40;102263.69;4976191;28;96839;-75
2021/09/02 05:03:05;;;;;;;;;;;;;;;19.54;58.65;102260.22;4974000;28;98919;-74
2021/09/02 05:05:32;;;;;;;;;;;;;;;19.29;59.13;102268.56;4972948;28;98882;-73
2021/09/02 05:07:59;;;;;;;;;;;;;;;19.43;59.17;102272.28;4974143;28;96944;-74
2021/09/02 05:10:26;;;;;;;;;;;;;;;19.43;59.07;102274.97;4971795;28;97057;-75
2021/09/02 05:12:52;;;;;;;;;;;;;;;19.25;59.61;102269.63;4970356;28;99120;-73
2021/09/02 05:15:19;;;;;;;;;;;;;;;19.52;58.89;102262.09;4971435;28;98613;-74
2021/09/02 05:17:45;;;;;;;;;;;;;;;19.67;58.15;102266.72;4970970;28;97081;-73
2021/09/02 05:20:12;;;;;;;;;;;;;;;19.76;57.72;102274.28;4973431;28;96936;-73
2021/09/02 05:22:38;;;;;;;;;;;;;;;19.58;58.36;102273.41;4971938;28;99360;-74
2021/09/02 05:25:07;;;;;;;;;;;;;;;19.66;58.15;102278.38;4973896;28;99393;-74
2021/09/02 05:27:33;;;;;;;;;;;;;;;19.83;57.59;102281.97;4971911;28;98264;-74
2021/09/02 05:29:59;;;;;;;;;;;;;;;19.75;57.70;102280.63;4974257;28;96892;-75
2021/09/02 05:32:26;;;;;;;;;;;;;;;19.94;57.51;102280.56;4969267;28;98536;-74
2021/09/02 05:34:52;;;;;;;;;;;;;;;19.98;57.10;102271.41;4975378;28;99455;-73
2021/09/02 05:37:18;;;;;;;;;;;;;;;19.50;57.95;102279.13;4974497;28;96898;-74
2021/09/02 05:39:44;;;;;;;;;;;;;;;19.79;57.70;102275.03;4973905;28;96832;-73
2021/09/02 05:42:12;;;;;;;;;;;;;;;19.75;57.73;102277.94;4975715;28;99149;-75
2021/09/02 05:44:38;;;;;;;;;;;;;;;19.85;57.52;102282.75;4970433;28;97652;-74
2021/09/02 05:47:05;;;;;;;;;;;;;;;20.01;57.14;102276.63;4969864;28;98560;-73
2021/09/02 05:49:31;;;;;;;;;;;;;;;20.08;56.79;102278.94;4966123;28;97643;-75
2021/09/02 05:51:58;;;;;;;;;;;;;;;19.89;57.40;102280.78;4974180;28;99234;-74
2021/09/02 05:54:24;;;;;;;;;;;;;;;19.88;57.62;102271.91;4972531;28;99632;-74
2021/09/02 05:56:50;;;;;;;;;;;;;;;20.12;56.75;102269.78;4966393;28;99142;-75
2021/09/02 05:59:18;;;;;;;;;;;;;;;19.99;57.53;102279.38;4969574;28;96950;-73
2021/09/02 06:01:44;;;;;;;;;;;;;;;20.27;56.59;102278.84;4963228;28;98979;-75
2021/09/02 06:04:10;;;;;;;;;;;;;;;20.23;56.49;102272.75;4966582;28;98773;-74
2021/09/02 06:06:37;;;;;;;;;;;;;;;20.32;56.78;102278.59;4964708;28;96961;-74
2021/09/02 06:09:03;;;;;;;;;;;;;;;20.54;55.97;102287.31;4972182;28;97003;-74
2021/09/02 06:11:30;;;;;;;;;;;;;;;20.65;55.80;102285.78;4966994;28;99343;-73
2021/09/02 06:13:57;;;;;;;;;;;;;;;20.87;55.34;102301.59;4968727;28;97725;-74
2021/09/02 06:16:24;;;;;;;;;;;;;;;20.60;55.97;102293.22;4964734;28;97025;-73
2021/09/02 06:18:51;;;;;;;;;;;;;;;19.87;58.41;102296.97;4969148;28;97433;-77
2021/09/02 06:21:17;;;;;;;;;;;;;;;20.35;57.32;102294.59;4971191;28;99317;-74
2021/09/02 06:23:43;;;;;;;;;;;;;;;19.93;58.24;102295.81;4973172;28;99276;-74
2021/09/02 06:26:10;;;;;;;;;;;;;;;20.66;56.09;102303.66;4971547;28;97813;-74
2021/09/02 06:28:36;;;;;;;;;;;;;;;20.66;56.04;102302.78;4971024;28;97749;-75
2021/09/02 06:31:03;;;;;;;;;;;;;;;20.45;56.68;102293.16;4966443;28;99353;-73
2021/09/02 06:33:30;;;;;;;;;;;;;;;20.85;55.89;102306.22;4967082;28;98834;-73
2021/09/02 06:35:57;;;;;;;;;;;;;;;20.99;55.46;102303.66;4965937;28;96919;-74
2021/09/02 06:38:23;;;;;;;;;;;;;;;21.20;54.99;102308.84;4958381;28;96974;-74
2021/09/02 06:40:49;;;;;;;;;;;;;;;21.00;55.73;102313.41;4967584;28;99014;-76
2021/09/02 06:43:16;;;;;;;;;;;;;;;20.86;56.33;102315.13;4966301;28;98825;-74
2021/09/02 06:45:42;;;;;;;;;;;;;;;21.00;55.57;102302.66;4972672;28;97159;-74
2021/09/02 06:48:08;;;;;;;;;;;;;;;21.05;55.45;102315.88;4973674;28;96951;-75
2021/09/02 06:50:36;;;;;;;;;;;;;;;20.68;56.53;102322.34;4968596;28;98987;-74
2021/09/02 06:53:03;;;;;;;;;;;;;;;20.65;56.73;102325.19;4974000;28;98903;-73
2021/09/02 06:55:29;;;;;;;;;;;;;;;20.77;56.60;102324.56;4968823;28;97279;-73
2021/09/02 06:57:57;;;;;;;;;;;;;;;21.07;55.64;102335.44;4967400;28;97193;-74
2021/09/02 07:00:23;;;;;;;;;;;;;;;20.83;55.90;102340.34;4971513;28;99198;-73
2021/09/02 07:02:50;;;;;;;;;;;;;;;20.81;56.25;102334.16;4968036;28;98888;-74
2021/09/02 07:05:17;;;;;;;;;;;;;;;21.04;55.58;102330.25;4966426;28;99007;-73
2021/09/02 07:07:45;;;;;;;;;;;;;;;21.55;54.15;102341.78;4968084;28;99162;-74
2021/09/02 07:10:12;;;;;;;;;;;;;;;21.35;54.49;102340.22;4971052;28;98885;-73
2021/09/02 07:12:38;;;;;;;;;;;;;;;21.58;54.13;102347.03;4971466;28;101523;-73
2021/09/02 07:15:05;;;;;;;;;;;;;;;21.95;52.89;102348.47;4965616;28;97883;-75
2021/09/02 07:17:31;;;;;;;;;;;;;;;21.47;54.25;102344.91;4960843;28;99373;-72
2021/09/02 07:19:59;;;;;;;;;;;;;;;22.31;52.15;102348.19;4963495;28;98960;-74
2021/09/02 07:22:26;;;;;;;;;;;;;;;22.40;51.54;102356.56;4967527;28;98848;-77
2021/09/02 07:24:54;;;;;;;;;;;;;;;22.83;50.41;102359.41;4969031;28;96987;-74
2021/09/02 07:27:20;;;;;;;;;;;;;;;22.72;50.40;102353.75;4968391;28;97450;-73
2021/09/02 07:29:47;;;;;;;;;;;;;;;22.85;49.96;102349.38;4968134;28;99473;-74
2021/09/02 07:32:13;;;;;;;;;;;;;;;22.37;51.06;102358.59;4964418;28;98911;-74
2021/09/02 07:34:39;;;;;;;;;;;;;;;22.33;51.52;102363.28;4966941;28;97186;-73
2021/09/02 07:37:05;;;;;;;;;;;;;;;22.01;52.17;102362.47;4964410;28;97228;-72
2021/09/02 07:39:32;;;;;;;;;;;;;;;22.34;51.62;102365.00;4966282;28;99341;-74
2021/09/02 07:41:59;;;;;;;;;;;;;;;22.42;51.03;102367.25;4965824;28;97878;-74
2021/09/02 07:44:26;;;;;;;;;;;;;;;22.61;50.46;102371.44;4966079;28;97268;-74
2021/09/02 07:46:52;;;;;;;;;;;;;;;22.55;50.86;102369.13;4970775;28;97041;-73
2021/09/02 07:49:18;;;;;;;;;;;;;;;22.40;51.06;102380.78;4967054;28;99259;-73
2021/09/02 07:51:55;;;;;;;;;;;;;;;22.86;49.82;102378.06;4970084;28;99045;-74
2021/09/02 07:54:28;;;;;;;;;;;;;;;22.12;51.08;102378.84;4960988;28;98331;-74
2021/09/02 07:56:57;;;;;;;;;;;;;;;22.57;49.96;102371.72;4962504;28;97361;-73
2021/09/02 07:59:25;;;;;;;;;;;;;;;22.22;51.17;102373.81;4967195;28;98949;-74
2021/09/02 08:01:51;;;;;;;;;;;;;;;22.26;50.73;102383.44;4963807;28;98384;-72
2021/09/02 08:04:17;;;;;;;;;;;;;;;21.81;51.41;102382.41;4957322;28;98448;-74
2021/09/02 08:06:43;;;;;;;;;;;;;;;21.95;51.17;102391.53;4965048;28;98566;-72
2021/09/02 08:09:10;;;;;;;;;;;;;;;21.80;51.63;102393.25;4958374;28;99179;-73
2021/09/02 08:11:36;;;;;;;;;;;;;;;21.84;51.35;102389.47;4967850;28;99097;-74
2021/09/02 08:14:02;;;;;;;;;;;;;;;21.05;53.48;102394.69;4965621;28;96902;-73
2021/09/02 08:16:30;;;;;;;;;;;;;;;21.62;52.15;102389.78;4970289;28;96860;-73
2021/09/02 08:18:58;;;;;;;;;;;;;;;22.14;50.54;102394.94;4968079;28;98479;-76
2021/09/02 08:21:24;;;;;;;;;;;;;;;22.51;49.25;102397.19;4968731;28;99266;-74
2021/09/02 08:23:50;;;;;;;;;;;;;;;23.00;47.93;102392.44;4972146;28;97073;-74
2021/09/02 08:26:17;;;;;;;;;;;;;;;22.80;48.24;102405.38;4972304;28;97038;-73
2021/09/02 08:28:43;;;;;;;;;;;;;;;23.03;47.71;102404.88;4973648;28;98251;-73
2021/09/02 08:31:09;;;;;;;;;;;;;;;22.83;48.16;102405.22;4973323;28;98906;-73
2021/09/02 08:33:37;;;;;;;;;;;;;;;23.08;47.86;102391.97;4974195;28;96873;-74
2021/09/02 08:36:03;;;;;;;;;;;;;;;22.46;48.62;102403.81;4972973;28;98347;-74
2021/09/02 08:38:30;;;;;;;;;;;;;;;21.79;50.72;102407.69;4974098;28;99114;-73
2021/09/02 08:40:56;;;;;;;;;;;;;;;21.72;50.75;102409.00;4974330;28;98775;-74
2021/09/02 08:43:22;;;;;;;;;;;;;;;21.75;50.64;102406.97;4974065;28;97043;-73
2021/09/02 08:45:49;;;;;;;;;;;;;;;21.49;51.22;102412.94;4973176;28;97477;-73
2021/09/02 08:48:15;;;;;;;;;;;;;;;20.85;53.11;102415.50;4972884;28;98756;-73
2021/09/02 08:50:42;;;;;;;;;;;;;;;21.09;52.09;102408.81;4975401;28;98248;-74
2021/09/02 08:53:09;;;;;;;;;;;;;;;21.44;51.53;102418.59;4972884;28;97395;-74
2021/09/02 08:55:35;;;;;;;;;;;;;;;22.21;49.65;102415.16;4973482;28;97223;-73
2021/09/02 08:58:02;;;;;;;;;;;;;;;21.38;51.23;102415.34;4971515;28;99273;-72
2021/09/02 09:00:28;;;;;;;;;;;;;;;22.24;49.46;102418.56;4975778;28;99034;-73
2021/09/02 09:03:01;;;;;;;;;;;;;;;22.59;49.25;102412.91;4970229;28;96983;-74
2021/09/02 09:05:30;;;;;;;;;;;;;;;22.89;48.04;102412.91;4975292;28;97742;-77
2021/09/02 09:08:07;;;;;;;;;;;;;;;22.86;48.05;102419.34;4974755;28;97037;-77
2021/09/02 09:10:34;;;;;;;;;;;;;;;22.40;49.18;102417.63;4968168;28;98104;-74
2021/09/02 09:13:01;;;;;;;;;;;;;;;22.55;48.90;102423.00;4972180;28;97286;-74
2021/09/02 09:15:28;;;;;;;;;;;;;;;22.63;48.37;102417.16;4973446;28;98427;-72
2021/09/02 09:17:56;;;;;;;;;;;;;;;22.85;48.28;102419.44;4972199;28;99011;-72
2021/09/02 09:20:24;;;;;;;;;;;;;;;22.60;48.47;102411.94;4972852;28;98379;-76
2021/09/02 09:22:56;;;;;;;;;;;;;;;22.63;48.72;102415.34;4973263;28;97093;-74
2021/09/02 09:25:27;;;;;;;;;;;;;;;22.95;47.81;102409.84;4969830;28;96776;-74
2021/09/02 09:27:57;;;;;;;;;;;;;;;23.00;47.61;102410.44;4964154;28;100165;-74
2021/09/02 09:30:24;;;;;;;;;;;;;;;23.41;46.85;102403.34;4964772;28;99187;-75
2021/09/02 09:32:52;;;;;;;;;;;;;;;23.64;46.25;102415.38;4969729;28;97586;-74
2021/09/02 09:35:19;;;;;;;;;;;;;;;22.88;48.24;102421.97;4966191;28;97210;-73
2021/09/02 09:37:46;;;;;;;;;;;;;;;23.65;46.77;102416.25;4966892;28;98175;-76
2021/09/02 09:40:14;;;;;;;;;;;;;;;23.53;47.02;102422.41;4970139;28;99318;-74
2021/09/02 09:42:53;;;;;;;;;;;;;;;22.61;48.59;102427.16;4971892;28;97211;-74
2021/09/02 09:45:31;;;;;;;;;;;;;;;22.18;50.12;102428.81;4969598;28;97905;-75
2021/09/02 09:47:57;;;;;;;;;;;;;;;23.15;47.92;102432.88;4967510;28;99456;-74
2021/09/02 09:50:24;;;;;;;;;;;;;;;22.60;49.56;102437.06;4972006;28;99471;-74
2021/09/02 09:52:50;;;;;;;;;;;;;;;23.02;48.24;102440.88;4967501;28;97464;-74
2021/09/02 09:55:17;;;;;;;;;;;;;;;23.19;48.00;102439.81;4968979;28;96988;-74
2021/09/02 09:57:46;;;;;;;;;;;;;;;23.64;46.48;102433.38;4970087;28;99628;-75
2021/09/02 10:00:14;;;;;;;;;;;;;;;24.03;45.92;102433.50;4972970;28;101824;-76
2021/09/02 10:02:41;;;;;;;;;;;;;;;23.59;46.97;102432.81;4971054;28;96903;-73
2021/09/02 10:05:08;;;;;;;;;;;;;;;22.85;48.62;102430.22;4972230;28;96906;-75
2021/09/02 10:07:35;;;;;;;;;;;;;;;23.75;46.91;102423.66;4972229;28;98989;-74
2021/09/02 10:10:01;;;;;;;;;;;;;;;23.72;46.61;102428.38;4972562;28;99146;-73
2021/09/02 10:12:34;;;;;;;;;;;;;;;23.56;47.04;102423.13;4971097;28;96872;-74
2021/09/02 10:15:02;;;;;;;;;;;;;;;24.05;46.10;102423.50;4974907;28;96892;-74
2021/09/02 10:17:28;;;;;;;;;;;;;;;24.18;45.95;102424.41;4974163;28;98841;-74
2021/09/02 10:19:55;;;;;;;;;;;;;;;24.32;45.50;102423.53;4976742;28;98891;-74
2021/09/02 10:22:21;;;;;;;;;;;;;;;24.39;45.14;102407.78;4975706;28;97439;-75
2021/09/02 10:24:49;;;;;;;;;;;;;;;24.13;46.04;102415.75;4974288;28;97113;-73
2021/09/02 10:27:36;;;;;;;;;;;;;;;22.98;48.35;102410.50;4971416;28;98859;-73
2021/09/02 10:30:20;;;;;;;;;;;;;;;22.02;51.31;102411.78;4971206;28;98903;-75
2021/09/02 10:32:46;;;;;;;;;;;;;;;23.08;48.51;102404.56;4972460;28;97296;-73
2021/09/02 10:35:37;;;;;;;;;;;;;;;22.36;50.57;102405.31;4971845;28;97663;-72
2021/09/02 10:38:05;;;;;;;;;;;;;;;23.10;48.72;102408.03;4960557;28;98924;-73
2021/09/02 10:40:47;;;;;;;;;;;;;;;23.35;48.26;102413.63;4974594;28;99203;-74
2021/09/02 10:43:14;;;;;;;;;;;;;;;22.75;49.26;102412.88;4974164;28;97406;-74
2021/09/02 10:45:43;;;;;;;;;;;;;;;22.82;49.41;102411.56;4971613;28;97227;-74
2021/09/02 10:48:15;;;;;;;;;;;;;;;22.98;49.19;102409.66;4976428;28;98926;-72
2021/09/02 10:50:43;;;;;;;;;;;;;;;23.14;48.56;102405.06;4972107;28;99283;-74
2021/09/02 10:53:10;;;;;;;;;;;;;;;23.29;48.63;102406.81;4969833;28;97378;-74
2021/09/02 10:55:37;;;;;;;;;;;;;;;23.95;46.78;102408.88;4972272;28;97008;-73
2021/09/02 10:58:04;;;;;;;;;;;;;;;23.93;46.96;102416.19;4970010;28;99340;-73
2021/09/02 11:00:31;;;;;;;;;;;;;;;23.90;47.08;102410.13;4972708;28;97853;-74
2021/09/02 11:03:11;;;;;;;;;;;;;;;23.85;47.24;102415.81;4974664;28;97400;-74
2021/09/02 11:05:38;;;;;;;;;;;;;;;23.36;48.54;102412.69;4971292;28;99143;-73
2021/09/02 11:08:04;;;;;;;;;;;;;;;22.76;49.49;102411.94;4969271;28;98941;-73
2021/09/02 11:10:31;;;;;;;;;;;;;;;22.44;50.73;102413.81;4970799;28;99084;-72
2021/09/02 11:13:01;;;;;;;;;;;;;;;23.25;48.93;102407.06;4970781;28;97536;-73
2021/09/02 11:15:28;;;;;;;;;;;;;;;23.54;48.74;102408.84;4972558;28;97280;-73
2021/09/02 11:17:55;;;;;;;;;;;;;;;24.11;47.16;102408.72;4968340;28;98963;-73
2021/09/02 11:20:24;;;;;;;;;;;;;;;23.71;47.23;102408.63;4969941;28;99006;-74
2021/09/02 11:22:50;;;;;;;;;;;;;;;23.52;47.53;102404.50;4971905;28;96812;-73
2021/09/02 11:25:30;;;;;;;;;;;;;;;23.31;48.28;102404.84;4969190;28;100434;-74
2021/09/02 11:28:02;;;;;;;;;;;;;;;24.06;46.48;102403.63;4969785;28;99011;-74
2021/09/02 11:30:36;;;;;;;;;;;;;;;23.49;47.53;102412.81;4969845;28;99622;-74
2021/09/02 11:33:05;;;;;;;;;;;;;;;22.99;48.40;102406.88;4960095;28;98855;-73
2021/09/02 11:35:33;;;;;;;;;;;;;;;23.85;46.46;102415.81;4968132;28;96952;-75
2021/09/02 11:38:02;;;;;;;;;;;;;;;22.90;49.19;102406.56;4968292;28;99662;-75
2021/09/02 11:40:30;;;;;;;;;;;;;;;22.86;49.16;102395.09;4964469;28;98637;-74
2021/09/02 11:43:00;;;;;;;;;;;;;;;22.94;49.35;102395.50;4968187;28;97296;-74
2021/09/02 11:45:27;;;;;;;;;;;;;;;23.28;48.43;102393.41;4966062;28;97563;-75
2021/09/02 11:47:54;;;;;;;;;;;;;;;23.31;47.86;102390.50;4967844;28;98986;-74
2021/09/02 11:50:21;;;;;;;;;;;;;;;23.48;47.75;102387.66;4968070;28;98784;-73
2021/09/02 11:52:50;;;;;;;;;;;;;;;23.83;47.00;102380.81;4970995;28;96815;-73
2021/09/02 11:55:27;;;;;;;;;;;;;;;23.68;47.50;102392.63;4965055;28;98036;-72
2021/09/02 11:57:54;;;;;;;;;;;;;;;23.27;48.43;102387.16;4966957;28;98971;-73
2021/09/02 12:00:20;;;;;;;;;;;;;;;24.20;46.15;102389.25;4966727;28;99171;-74
2021/09/02 12:02:47;;;;;;;;;;;;;;;24.17;46.52;102390.25;4971812;28;97682;-73
2021/09/02 12:05:14;;;;;;;;;;;;;;;24.34;46.29;102386.47;4970943;28;98751;-74
2021/09/02 12:07:40;;;;;;;;;;;;;;;24.86;44.70;102388.31;4969752;28;98973;-74
2021/09/02 12:10:09;;;;;;;;;;;;;;;25.08;43.70;102385.81;4973846;28;99034;-74
2021/09/02 12:12:36;;;;;;;;;;;;;;;24.84;44.23;102382.13;4969769;28;96982;-74
2021/09/02 12:15:03;;;;;;;;;;;;;;;24.70;44.73;102391.19;4969723;28;97029;-73
2021/09/02 12:17:33;;;;;;;;;;;;;;;25.25;43.53;102384.66;4974599;28;98923;-74
2021/09/02 12:20:00;;;;;;;;;;;;;;;25.09;43.60;102387.56;4969573;28;98788;-73
2021/09/02 12:22:31;;;;;;;;;;;;;;;25.09;43.39;102381.28;4973609;28;97267;-73
2021/09/02 12:25:06;;;;;;;;;;;;;;;24.72;43.79;102375.75;4973690;28;96874;-75
2021/09/02 12:27:41;;;;;;;;;;;;;;;24.51;44.19;102377.22;4973380;28;99318;-74
2021/09/02 12:30:08;;;;;;;;;;;;;;;24.62;43.50;102374.63;4972798;28;98864;-74
2021/09/02 12:32:34;;;;;;;;;;;;;;;25.07;43.29;102375.16;4973029;28;96852;-74
2021/09/02 12:35:10;;;;;;;;;;;;;;;24.66;44.07;102376.16;4973933;28;96855;-74
2021/09/02 12:37:37;;;;;;;;;;;;;;;24.44;43.88;102368.66;4963060;28;99116;-74